createdAt,value
2018-06-22T00:00:30.856Z,2.70
2018-06-22T00:02:58.898Z,2.53
2018-06-22T00:05:26.918Z,2.27
2018-06-22T00:08:02.355Z,2.60
2018-06-22T00:10:30.358Z,2.70
2018-06-22T00:13:04.165Z,2.23
2018-06-22T00:15:32.216Z,2.30
2018-06-22T00:18:04.284Z,2.43
2018-06-22T00:20:32.339Z,2.33
2018-06-22T00:23:04.031Z,2.07
2018-06-22T00:25:32.773Z,2.00
2018-06-22T00:28:00.805Z,2.37
2018-06-22T00:30:32.690Z,2.60
2018-06-22T00:33:02.691Z,2.70
2018-06-22T00:35:30.701Z,2.17
2018-06-22T00:38:04.729Z,2.03
2018-06-22T00:40:42.693Z,2.20
2018-06-22T00:43:10.754Z,1.90
2018-06-22T00:45:42.785Z,2.30
2018-06-22T00:48:10.813Z,2.00
2018-06-22T00:50:44.687Z,2.27
2018-06-22T00:53:28.240Z,2.30
2018-06-22T00:56:02.409Z,2.37
2018-06-22T00:58:33.873Z,2.30
2018-06-22T01:01:02.981Z,2.27
2018-06-22T01:03:32.948Z,2.90
2018-06-22T01:06:02.811Z,2.33
2018-06-22T01:08:32.817Z,2.20
2018-06-22T01:11:02.750Z,2.50
2018-06-22T01:13:31.012Z,2.33
2018-06-22T01:15:58.852Z,2.20
2018-06-22T01:18:26.898Z,2.47
2018-06-22T01:21:02.819Z,2.40
2018-06-22T01:23:30.862Z,2.53
2018-06-22T01:25:59.141Z,2.30
2018-06-22T01:28:32.688Z,2.63
2018-06-22T01:31:00.714Z,2.40
2018-06-22T01:33:32.769Z,2.27
2018-06-22T01:36:00.811Z,3.37
2018-06-22T01:38:28.858Z,2.60
2018-06-22T01:41:02.721Z,2.13
2018-06-22T01:43:33.999Z,2.90
2018-06-22T01:46:02.038Z,2.00
2018-06-22T01:48:30.106Z,2.33
2018-06-22T01:51:03.967Z,2.23
2018-06-22T01:53:33.338Z,2.43
2018-06-22T01:56:01.357Z,2.43
2018-06-22T01:58:41.417Z,2.13
2018-06-22T02:01:09.422Z,2.07
2018-06-22T02:03:42.943Z,2.23
2018-06-22T02:06:11.040Z,2.37
2018-06-22T02:08:39.201Z,1.90
2018-06-22T02:11:15.169Z,2.37
2018-06-22T02:13:52.881Z,2.10
2018-06-22T02:16:20.912Z,2.20
2018-06-22T02:18:48.975Z,2.43
2018-06-22T02:21:23.000Z,2.30
2018-06-22T02:23:51.046Z,1.93
2018-06-22T02:26:22.846Z,1.93
2018-06-22T02:28:50.948Z,1.97
2018-06-22T02:31:22.582Z,1.93
2018-06-22T02:33:50.631Z,1.90
2018-06-22T02:36:18.674Z,2.10
2018-06-22T02:38:46.691Z,1.87
2018-06-22T02:41:14.766Z,1.90
2018-06-22T02:43:53.312Z,1.70
2018-06-22T02:46:24.495Z,2.00
2018-06-22T02:48:53.299Z,1.90
2018-06-22T02:51:23.046Z,1.97
2018-06-22T02:53:54.184Z,1.93
2018-06-22T02:56:22.302Z,1.87
2018-06-22T02:58:50.356Z,1.90
2018-06-22T03:01:18.427Z,2.00
2018-06-22T03:03:52.659Z,1.77
2018-06-22T03:06:20.691Z,1.70
2018-06-22T03:08:54.870Z,1.73
2018-06-22T03:11:33.260Z,1.80
2018-06-22T03:14:04.454Z,1.80
2018-06-22T03:16:32.508Z,1.67
2018-06-22T03:19:03.953Z,1.90
2018-06-22T03:21:31.999Z,1.70
2018-06-22T03:24:00.070Z,1.70
2018-06-22T03:26:28.133Z,1.50
2018-06-22T03:29:02.564Z,2.07
2018-06-22T03:31:30.627Z,1.67
2018-06-22T03:33:58.713Z,1.30
2018-06-22T03:36:32.315Z,2.67
2018-06-22T03:39:04.133Z,2.00
2018-06-22T03:41:33.205Z,2.00
2018-06-22T03:44:03.043Z,1.83
2018-06-22T03:46:32.667Z,1.53
2018-06-22T03:49:04.489Z,1.73
2018-06-22T03:51:33.258Z,2.00
2018-06-22T03:54:03.135Z,1.60
2018-06-22T03:56:32.906Z,1.67
2018-06-22T03:59:02.730Z,1.57
2018-06-22T04:01:34.569Z,1.47
2018-06-22T04:04:02.695Z,1.60
2018-06-22T04:06:30.741Z,1.50
2018-06-22T04:08:58.827Z,1.83
2018-06-22T04:11:26.890Z,1.40
2018-06-22T04:14:02.242Z,2.03
2018-06-22T04:16:30.316Z,1.90
2018-06-22T04:18:58.453Z,1.80
2018-06-22T04:21:32.738Z,2.33
2018-06-22T04:24:00.813Z,1.37
2018-06-22T04:26:32.382Z,2.10
2018-06-22T04:29:03.955Z,1.43
2018-06-22T04:31:33.051Z,1.70
2018-06-22T04:34:02.738Z,1.43
2018-06-22T04:36:34.442Z,1.73
2018-06-22T04:39:02.542Z,1.37
2018-06-22T04:41:30.393Z,1.40
2018-06-22T04:44:08.962Z,1.63
2018-06-22T04:46:43.369Z,1.47
2018-06-22T04:49:11.522Z,1.60
2018-06-22T04:51:42.537Z,1.87
2018-06-22T04:54:13.887Z,1.13
2018-06-22T04:56:41.936Z,1.53
2018-06-22T04:59:13.618Z,1.40
2018-06-22T05:01:41.708Z,1.50
2018-06-22T05:04:12.857Z,1.60
2018-06-22T05:06:44.510Z,1.50
2018-06-22T05:09:13.280Z,1.30
2018-06-22T05:11:43.458Z,1.63
2018-06-22T05:14:12.731Z,2.33
2018-06-22T05:16:40.784Z,1.57
2018-06-22T05:19:14.931Z,1.60
2018-06-22T05:21:42.968Z,1.67
2018-06-22T05:24:11.002Z,1.70
2018-06-22T05:26:39.076Z,1.77
2018-06-22T05:29:07.151Z,1.00
2018-06-22T05:31:42.446Z,1.57
2018-06-22T05:34:10.545Z,1.57
2018-06-22T05:36:44.735Z,1.57
2018-06-22T05:39:12.970Z,2.07
2018-06-22T05:41:44.578Z,2.03
2018-06-22T05:44:12.689Z,1.30
2018-06-22T05:46:46.165Z,1.40
2018-06-22T05:49:14.245Z,1.30
2018-06-22T05:51:42.652Z,1.33
2018-06-22T05:54:14.579Z,1.40
2018-06-22T05:56:55.186Z,1.50
2018-06-22T05:59:23.279Z,1.43
2018-06-22T06:01:51.337Z,1.63
2018-06-22T06:04:24.930Z,1.53
2018-06-22T06:07:02.542Z,1.30
2018-06-22T06:09:30.624Z,1.80
2018-06-22T06:11:58.666Z,2.03
2018-06-22T06:14:26.758Z,1.63
2018-06-22T06:16:55.090Z,1.47
2018-06-22T06:19:23.186Z,1.70
2018-06-22T06:21:54.293Z,1.47
2018-06-22T06:24:23.168Z,1.63
2018-06-22T06:26:51.270Z,1.47
2018-06-22T06:29:19.475Z,2.27
2018-06-22T06:31:54.067Z,1.60
2018-06-22T06:34:22.435Z,1.63
2018-06-22T06:36:50.492Z,2.13
2018-06-22T06:39:18.558Z,1.67
2018-06-22T06:41:52.885Z,1.73
2018-06-22T06:44:20.938Z,1.80
2018-06-22T06:46:49.008Z,1.20
2018-06-22T06:49:23.095Z,1.90
2018-06-22T06:51:51.209Z,1.30
2018-06-22T06:54:23.183Z,2.20
2018-06-22T06:56:52.922Z,1.30
2018-06-22T06:59:23.956Z,1.40
2018-06-22T07:01:52.930Z,1.33
2018-06-22T07:04:24.557Z,1.40
2018-06-22T07:06:53.279Z,1.50
2018-06-22T07:09:21.456Z,1.67
2018-06-22T07:11:52.716Z,1.50
2018-06-22T07:14:24.726Z,1.30
2018-06-22T07:17:02.778Z,1.27
2018-06-22T07:19:30.887Z,1.33
2018-06-22T07:21:58.932Z,1.60
2018-06-22T07:24:27.000Z,1.50
2018-06-22T07:26:55.079Z,1.87
2018-06-22T07:29:33.175Z,1.37
2018-06-22T07:32:01.264Z,1.40
2018-06-22T07:34:29.327Z,1.47
2018-06-22T07:36:57.395Z,1.37
2018-06-22T07:39:32.144Z,1.43
2018-06-22T07:42:03.374Z,1.60
2018-06-22T07:44:33.153Z,1.53
2018-06-22T07:47:01.232Z,1.50
2018-06-22T07:49:29.306Z,1.33
2018-06-22T07:51:57.393Z,1.70
2018-06-22T07:54:25.445Z,1.20
2018-06-22T07:56:53.498Z,1.10
2018-06-22T07:59:22.760Z,1.47
2018-06-22T08:01:50.841Z,1.50
2018-06-22T08:04:18.927Z,1.07
2018-06-22T08:06:53.066Z,1.10
2018-06-22T08:09:21.198Z,1.20
2018-06-22T08:11:49.338Z,1.30
2018-06-22T08:14:17.484Z,1.17
2018-06-22T08:16:53.155Z,1.00
2018-06-22T08:19:21.170Z,1.30
2018-06-22T08:21:49.296Z,0.80
2018-06-22T08:24:23.391Z,1.00
2018-06-22T08:26:51.457Z,1.00
2018-06-22T08:29:23.133Z,1.23
2018-06-22T08:31:52.817Z,1.00
2018-06-22T08:34:24.564Z,0.80
2018-06-22T08:36:52.605Z,0.87
2018-06-22T08:39:20.689Z,1.13
2018-06-22T08:41:48.871Z,1.17
2018-06-22T08:44:23.098Z,1.20
2018-06-22T08:46:52.780Z,1.10
2018-06-22T08:49:23.853Z,0.97
2018-06-22T08:51:52.831Z,1.07
2018-06-22T08:54:24.287Z,1.20
2018-06-22T08:56:52.370Z,1.00
2018-06-22T08:59:20.472Z,1.00
2018-06-22T09:01:48.577Z,1.20
2018-06-22T09:04:22.745Z,1.23
2018-06-22T09:06:50.893Z,1.30
2018-06-22T09:09:20.699Z,1.50
2018-06-22T09:11:48.853Z,1.30
2018-06-22T09:14:22.692Z,1.20
2018-06-22T09:16:50.750Z,1.43
2018-06-22T09:19:25.026Z,1.30
2018-06-22T09:22:03.582Z,1.50
2018-06-22T09:24:31.678Z,1.17
2018-06-22T09:26:59.803Z,1.20
2018-06-22T09:29:27.870Z,1.50
2018-06-22T09:32:02.706Z,1.00
2018-06-22T09:34:30.774Z,1.40
2018-06-22T09:36:58.851Z,0.80
2018-06-22T09:39:33.224Z,1.23
2018-06-22T09:42:01.351Z,1.00
2018-06-22T09:44:35.579Z,1.10
2018-06-22T09:47:03.642Z,0.93
2018-06-22T09:49:33.126Z,0.77
2018-06-22T09:52:02.845Z,0.93
2018-06-22T09:54:34.725Z,1.10
2018-06-22T09:57:02.761Z,1.10
2018-06-22T09:59:34.301Z,1.10
2018-06-22T10:02:03.161Z,1.00
2018-06-22T10:04:34.644Z,0.90
2018-06-22T10:07:03.225Z,1.13
2018-06-22T10:09:31.313Z,0.97
2018-06-22T10:11:59.385Z,1.10
2018-06-22T10:14:27.442Z,0.80
2018-06-22T10:16:55.552Z,0.80
2018-06-22T10:19:23.685Z,0.80
2018-06-22T10:21:53.105Z,0.63
2018-06-22T10:24:22.724Z,1.00
2018-06-22T10:26:50.865Z,0.90
2018-06-22T10:29:18.858Z,0.70
2018-06-22T10:31:48.994Z,0.60
2018-06-22T10:34:17.186Z,0.70
2018-06-22T10:36:52.971Z,0.63
2018-06-22T10:39:21.095Z,0.80
2018-06-22T10:41:49.186Z,0.73
2018-06-22T10:44:17.269Z,0.60
2018-06-22T10:46:45.402Z,0.70
2018-06-22T10:49:14.503Z,0.70
2018-06-22T10:51:42.659Z,0.40
2018-06-22T10:54:10.730Z,0.63
2018-06-22T10:56:38.782Z,0.60
2018-06-22T10:59:06.849Z,0.60
2018-06-22T11:01:34.911Z,0.83
2018-06-22T11:04:02.959Z,0.80
2018-06-22T11:06:34.055Z,0.80
2018-06-22T11:09:02.136Z,0.80
2018-06-22T11:11:30.212Z,0.73
2018-06-22T11:13:58.345Z,0.63
2018-06-22T11:16:26.490Z,0.90
2018-06-22T11:18:54.719Z,0.90
2018-06-22T11:21:33.514Z,0.50
2018-06-22T11:24:01.435Z,0.80
2018-06-22T11:26:29.529Z,1.17
2018-06-22T11:28:57.623Z,0.63
2018-06-22T11:31:32.437Z,1.20
2018-06-22T11:34:00.554Z,0.60
2018-06-22T11:36:34.870Z,0.80
2018-06-22T11:39:08.527Z,0.77
2018-06-22T11:41:37.146Z,0.60
2018-06-22T11:44:13.171Z,0.83
2018-06-22T11:46:41.210Z,0.85
2018-06-22T11:49:09.292Z,0.90
2018-06-22T11:51:37.378Z,1.03
2018-06-22T11:54:13.114Z,1.27
2018-06-22T11:56:41.205Z,1.23
2018-06-22T11:59:12.882Z,1.00
2018-06-22T12:01:44.588Z,1.03
2018-06-22T12:04:13.262Z,0.80
2018-06-22T12:06:42.962Z,1.00
2018-06-22T12:09:13.703Z,0.90
2018-06-22T12:11:42.371Z,0.90
2018-06-22T12:14:13.621Z,0.80
2018-06-22T12:16:41.683Z,0.87
2018-06-22T12:19:09.581Z,1.03
2018-06-22T12:21:43.610Z,0.90
2018-06-22T12:24:12.823Z,1.03
2018-06-22T12:26:44.617Z,0.87
2018-06-22T12:29:23.158Z,1.00
2018-06-22T12:31:54.818Z,1.00
2018-06-22T12:34:23.566Z,1.00
2018-06-22T12:36:52.923Z,1.00
2018-06-22T12:39:25.019Z,1.00
2018-06-22T12:41:53.135Z,0.97
2018-06-22T12:44:24.448Z,0.90
2018-06-22T12:46:52.958Z,1.20
2018-06-22T12:49:24.735Z,0.90
2018-06-22T12:52:03.035Z,1.10
2018-06-22T12:54:31.129Z,0.93
2018-06-22T12:57:03.106Z,0.90
2018-06-22T12:59:31.538Z,1.10
2018-06-22T13:02:05.125Z,1.60
2018-06-22T13:04:42.944Z,1.07
2018-06-22T13:07:11.046Z,1.00
2018-06-22T13:09:41.227Z,0.90
2018-06-22T13:12:15.032Z,1.05
2018-06-22T13:14:53.648Z,0.88
2018-06-22T13:17:21.743Z,1.20
2018-06-22T13:19:53.829Z,1.00
2018-06-22T13:22:21.945Z,0.90
2018-06-22T13:24:50.215Z,1.00
2018-06-22T13:27:18.356Z,0.70
2018-06-22T13:29:52.821Z,0.78
2018-06-22T13:32:21.154Z,1.20
2018-06-22T13:34:49.265Z,1.37
2018-06-22T13:37:17.495Z,0.98
2018-06-22T13:39:52.640Z,0.80
2018-06-22T13:42:23.859Z,1.17
2018-06-22T13:44:52.046Z,1.10
2018-06-22T13:47:20.222Z,1.20
2018-06-22T13:49:48.441Z,0.88
2018-06-22T13:52:22.302Z,0.90
2018-06-22T13:54:54.082Z,1.17
2018-06-22T13:57:22.296Z,1.05
2018-06-22T13:59:50.488Z,1.47
2018-06-22T14:02:24.150Z,1.30
2018-06-22T14:04:58.718Z,1.13
2018-06-22T14:07:32.673Z,1.10
2018-06-22T14:10:04.012Z,1.00
2018-06-22T14:12:32.172Z,1.13
2018-06-22T14:15:00.276Z,1.07
2018-06-22T14:17:28.527Z,1.10
2018-06-22T14:20:02.389Z,1.20
2018-06-22T14:22:30.568Z,1.15
2018-06-22T14:24:58.822Z,1.30
2018-06-22T14:27:33.381Z,1.10
2018-06-22T14:30:01.522Z,1.50
2018-06-22T14:32:29.709Z,1.30
2018-06-22T14:35:03.557Z,1.27
2018-06-22T14:37:33.586Z,1.40
2018-06-22T14:40:01.703Z,1.40
2018-06-22T14:42:30.019Z,1.30
2018-06-22T14:44:58.261Z,0.80
2018-06-22T14:47:26.460Z,1.40
2018-06-22T14:49:54.535Z,1.47
2018-06-22T14:52:23.339Z,1.55
2018-06-22T14:54:58.371Z,1.47
2018-06-22T14:57:38.439Z,1.15
2018-06-22T15:00:11.977Z,1.20
2018-06-22T15:02:45.547Z,1.47
2018-06-22T15:05:29.019Z,0.95
2018-06-22T15:08:05.084Z,1.30
2018-06-22T15:10:42.738Z,1.73
2018-06-22T15:13:13.979Z,1.27
2018-06-22T15:15:42.099Z,1.43
2018-06-22T15:18:10.248Z,1.50
2018-06-22T15:20:44.314Z,1.80
2018-06-22T15:23:13.403Z,1.90
2018-06-22T15:25:43.591Z,2.50
2018-06-22T15:28:11.695Z,2.00
2018-06-22T15:30:39.822Z,1.73
2018-06-22T15:33:12.175Z,1.33
2018-06-22T15:35:45.883Z,1.50
2018-06-22T15:38:19.390Z,1.60
2018-06-22T15:40:58.736Z,1.40
2018-06-22T15:43:32.338Z,1.53
2018-06-22T15:46:06.262Z,1.37
2018-06-22T15:48:49.717Z,1.30
2018-06-22T15:51:23.161Z,1.77
2018-06-22T15:54:00.146Z,1.80
2018-06-22T15:56:28.426Z,1.90
2018-06-22T15:59:02.573Z,2.20
2018-06-22T16:01:30.653Z,1.87
2018-06-22T16:04:00.078Z,1.70
2018-06-22T16:06:28.799Z,1.97
2018-06-22T16:08:56.890Z,1.97
2018-06-22T16:11:32.840Z,1.93
2018-06-22T16:14:06.329Z,1.70
2018-06-22T16:16:39.941Z,1.80
2018-06-22T16:19:19.484Z,2.03
2018-06-22T16:21:59.212Z,1.80
2018-06-22T16:24:38.468Z,2.00
2018-06-22T16:27:07.625Z,2.10
2018-06-22T16:29:42.393Z,1.77
2018-06-22T16:32:10.539Z,1.80
2018-06-22T16:34:38.720Z,1.90
2018-06-22T16:37:06.883Z,2.00
2018-06-22T16:39:35.001Z,1.70
2018-06-22T16:42:12.659Z,2.10
2018-06-22T16:44:45.995Z,1.60
2018-06-22T16:47:24.158Z,2.20
2018-06-22T16:49:52.293Z,1.80
2018-06-22T16:52:20.379Z,2.07
2018-06-22T16:54:48.523Z,2.27
2018-06-22T16:57:22.795Z,2.10
2018-06-22T16:59:50.918Z,2.10
2018-06-22T17:02:19.087Z,2.20
2018-06-22T17:04:52.816Z,2.27
2018-06-22T17:07:27.418Z,2.50
2018-06-22T17:10:00.842Z,2.30
2018-06-22T17:13:40.568Z,2.03
2018-06-22T17:16:14.151Z,2.17
2018-06-22T17:18:47.776Z,1.83
2018-06-22T17:21:22.958Z,1.80
2018-06-22T17:23:51.202Z,1.90
2018-06-22T17:26:22.898Z,2.13
2018-06-22T17:28:51.822Z,2.60
2018-06-22T17:31:19.883Z,2.10
2018-06-22T17:33:47.996Z,1.87
2018-06-22T17:36:16.099Z,1.90
2018-06-22T17:38:44.172Z,2.10
2018-06-22T17:41:12.238Z,2.00
2018-06-22T17:43:40.593Z,1.93
2018-06-22T17:46:14.802Z,2.33
2018-06-22T17:48:43.225Z,2.00
2018-06-22T17:51:11.318Z,1.93
2018-06-22T17:53:39.419Z,1.93
2018-06-22T17:56:07.521Z,1.80
2018-06-22T17:58:35.686Z,1.80
2018-06-22T18:01:09.111Z,1.57
2018-06-22T18:03:48.633Z,2.10
2018-06-22T18:06:28.694Z,2.20
2018-06-22T18:08:56.797Z,2.57
2018-06-22T18:11:30.188Z,1.90
2018-06-22T18:13:58.341Z,2.33
2018-06-22T18:16:33.097Z,2.50
2018-06-22T18:19:01.250Z,2.03
2018-06-22T18:21:29.317Z,2.17
2018-06-22T18:24:03.236Z,2.13
2018-06-22T18:26:31.390Z,2.30
2018-06-22T18:28:59.449Z,2.30
2018-06-22T18:31:27.528Z,1.93
2018-06-22T18:34:03.127Z,2.00
2018-06-22T18:36:31.220Z,2.27
2018-06-22T18:38:59.294Z,1.87
2018-06-22T18:41:33.780Z,2.20
2018-06-22T18:44:01.840Z,1.90
2018-06-22T18:46:33.340Z,2.03
2018-06-22T18:49:03.067Z,1.83
2018-06-22T18:51:34.925Z,2.30
2018-06-22T18:54:18.577Z,2.23
2018-06-22T18:57:59.850Z,2.30
2018-06-22T19:00:33.671Z,1.93
2018-06-22T19:03:07.345Z,1.93
2018-06-22T19:05:35.381Z,1.83
2018-06-22T19:08:13.685Z,2.13
2018-06-22T19:10:42.239Z,2.20
2018-06-22T19:13:13.703Z,2.07
2018-06-22T19:15:41.837Z,2.77
2018-06-22T19:18:13.057Z,2.30
2018-06-22T19:20:41.130Z,1.97
2018-06-22T19:23:15.038Z,2.63
2018-06-22T19:25:43.664Z,2.00
2018-06-22T19:28:11.771Z,2.10
2018-06-22T19:30:42.753Z,1.90
2018-06-22T19:33:12.743Z,2.13
2018-06-22T19:35:40.799Z,2.17
2018-06-22T19:38:08.935Z,2.20
2018-06-22T19:40:37.066Z,2.67
2018-06-22T19:43:18.098Z,2.83
2018-06-22T19:45:51.603Z,2.53
2018-06-22T19:48:31.216Z,2.10
2018-06-22T19:51:06.818Z,2.00
2018-06-22T19:53:47.860Z,2.30
2018-06-22T19:56:23.031Z,2.20
2018-06-22T19:58:54.095Z,2.20
2018-06-22T20:01:22.205Z,2.10
2018-06-22T20:03:53.509Z,2.17
2018-06-22T20:06:21.547Z,2.40
2018-06-22T20:08:49.673Z,2.30
2018-06-22T20:11:17.723Z,1.87
2018-06-22T20:13:52.593Z,2.00
2018-06-22T20:16:23.875Z,2.63
2018-06-22T20:18:51.923Z,2.03
2018-06-22T20:21:20.001Z,2.30
2018-06-22T20:23:48.090Z,2.87
2018-06-22T20:26:16.117Z,2.50
2018-06-22T20:28:44.202Z,2.30
2018-06-22T20:31:16.448Z,2.30
2018-06-22T20:33:44.920Z,2.37
2018-06-22T20:36:18.796Z,2.30
2018-06-22T20:38:52.399Z,2.40
2018-06-22T20:41:25.795Z,2.50
2018-06-22T20:44:08.947Z,2.20
2018-06-22T20:46:48.897Z,2.43
2018-06-22T20:49:22.431Z,2.50
2018-06-22T20:51:50.478Z,2.40
2018-06-22T20:54:20.329Z,2.10
2018-06-22T20:56:48.359Z,2.53
2018-06-22T20:59:22.989Z,2.40
2018-06-22T21:01:51.066Z,2.53
2018-06-22T21:04:25.365Z,2.43
2018-06-22T21:07:03.097Z,2.50
2018-06-22T21:09:31.151Z,2.93
2018-06-22T21:11:59.190Z,2.73
2018-06-22T21:14:33.177Z,2.97
2018-06-22T21:17:04.300Z,2.40
2018-06-22T21:19:32.376Z,1.87
2018-06-22T21:22:05.928Z,1.90
2018-06-22T21:24:37.885Z,1.83
2018-06-22T21:27:17.973Z,2.10
2018-06-22T21:29:51.637Z,1.80
2018-06-22T21:32:25.116Z,2.10
2018-06-22T21:35:08.234Z,2.43
2018-06-22T21:37:41.743Z,2.63
2018-06-22T21:40:09.787Z,2.70
2018-06-22T21:42:37.892Z,1.80
2018-06-22T21:45:12.627Z,2.50
2018-06-22T21:47:40.698Z,2.40
2018-06-22T21:50:14.243Z,2.30
2018-06-22T21:52:42.275Z,2.10
2018-06-22T21:55:14.017Z,2.07
2018-06-22T21:57:42.057Z,2.20
2018-06-22T22:00:10.863Z,2.20
2018-06-22T22:02:38.890Z,2.20
2018-06-22T22:05:06.935Z,2.27
2018-06-22T22:07:43.060Z,1.80
2018-06-22T22:10:11.105Z,1.93
2018-06-22T22:12:39.126Z,2.00
2018-06-22T22:15:07.155Z,2.17
2018-06-22T22:17:35.178Z,1.80
2018-06-22T22:20:03.224Z,2.00
2018-06-22T22:22:31.262Z,2.10
2018-06-22T22:25:03.118Z,2.30
2018-06-22T22:27:34.910Z,2.47
2018-06-22T22:30:12.393Z,2.63
2018-06-22T22:32:40.437Z,2.60
2018-06-22T22:35:08.489Z,2.83
2018-06-22T22:37:36.527Z,2.10
2018-06-22T22:40:14.210Z,2.10
2018-06-22T22:42:43.383Z,3.00
2018-06-22T22:45:11.410Z,2.13
2018-06-22T22:47:45.374Z,2.23
2018-06-22T22:50:22.977Z,2.07
2018-06-22T22:52:51.026Z,2.40
2018-06-22T22:55:19.086Z,2.17
2018-06-22T22:57:53.663Z,2.67
2018-06-22T23:00:21.750Z,2.30
2018-06-22T23:02:50.602Z,2.27
2018-06-22T23:05:24.258Z,2.80
2018-06-22T23:07:52.319Z,2.77
2018-06-22T23:10:23.479Z,2.10
2018-06-22T23:12:53.278Z,3.20
2018-06-22T23:15:21.329Z,2.40
2018-06-22T23:17:55.008Z,2.60
2018-06-22T23:20:32.692Z,2.20
2018-06-22T23:23:15.415Z,2.17
2018-06-22T23:25:43.463Z,2.80
2018-06-22T23:28:11.500Z,2.53
2018-06-22T23:30:39.533Z,2.47
2018-06-22T23:33:07.620Z,2.77
2018-06-22T23:35:35.653Z,2.53
2018-06-22T23:38:13.752Z,2.70
2018-06-22T23:40:41.793Z,2.20
2018-06-22T23:43:09.823Z,2.30
2018-06-22T23:45:44.201Z,2.83
2018-06-22T23:48:12.925Z,2.60
2018-06-22T23:50:45.509Z,2.30
2018-06-22T23:53:23.619Z,2.97
2018-06-22T23:55:51.674Z,2.00
2018-06-22T23:58:19.710Z,2.10
